sensor_id;sensor_type;location;lat;lon;timestamp;P1;durP1;ratioP1;P2;durP2;ratioP2
66546;SDS011;53400;50.364;14.874;2023-10-31T00:02:09;6.82;;;4.22;;
66546;SDS011;53400;50.364;14.874;2023-10-31T00:04:35;7.88;;;4.57;;
66546;SDS011;53400;50.364;14.874;2023-10-31T00:07:03;8.02;;;4.47;;
66546;SDS011;53400;50.364;14.874;2023-10-31T00:09:29;7.00;;;4.57;;
66546;SDS011;53400;50.364;14.874;2023-10-31T00:11:55;7.47;;;4.30;;
66546;SDS011;53400;50.364;14.874;2023-10-31T00:14:22;8.23;;;4.70;;
66546;SDS011;53400;50.364;14.874;2023-10-31T00:16:50;7.03;;;4.63;;
66546;SDS011;53400;50.364;14.874;2023-10-31T00:19:16;8.50;;;4.72;;
66546;SDS011;53400;50.364;14.874;2023-10-31T00:21:42;7.28;;;4.28;;
66546;SDS011;53400;50.364;14.874;2023-10-31T00:24:08;6.97;;;4.18;;
66546;SDS011;53400;50.364;14.874;2023-10-31T00:26:34;8.48;;;4.25;;
66546;SDS011;53400;50.364;14.874;2023-10-31T00:29:01;9.00;;;5.00;;
66546;SDS011;53400;50.364;14.874;2023-10-31T00:31:27;9.70;;;5.00;;
66546;SDS011;53400;50.364;14.874;2023-10-31T00:33:55;8.55;;;4.47;;
66546;SDS011;53400;50.364;14.874;2023-10-31T00:36:21;7.35;;;4.53;;
66546;SDS011;53400;50.364;14.874;2023-10-31T00:38:47;8.23;;;5.10;;
66546;SDS011;53400;50.364;14.874;2023-10-31T00:41:13;7.95;;;4.80;;
66546;SDS011;53400;50.364;14.874;2023-10-31T00:43:39;8.32;;;4.65;;
66546;SDS011;53400;50.364;14.874;2023-10-31T00:46:06;8.55;;;5.03;;
66546;SDS011;53400;50.364;14.874;2023-10-31T00:48:32;9.32;;;4.80;;
66546;SDS011;53400;50.364;14.874;2023-10-31T00:51:03;7.63;;;4.38;;
66546;SDS011;53400;50.364;14.874;2023-10-31T00:53:29;9.20;;;4.90;;
66546;SDS011;53400;50.364;14.874;2023-10-31T00:55:55;9.52;;;4.90;;
66546;SDS011;53400;50.364;14.874;2023-10-31T00:58:21;9.23;;;4.55;;
66546;SDS011;53400;50.364;14.874;2023-10-31T01:00:47;11.43;;;4.85;;
66546;SDS011;53400;50.364;14.874;2023-10-31T01:03:24;8.18;;;4.57;;
66546;SDS011;53400;50.364;14.874;2023-10-31T01:05:49;8.80;;;5.20;;
66546;SDS011;53400;50.364;14.874;2023-10-31T01:08:17;8.48;;;4.85;;
66546;SDS011;53400;50.364;14.874;2023-10-31T01:10:43;9.90;;;4.90;;
66546;SDS011;53400;50.364;14.874;2023-10-31T01:13:11;9.80;;;5.10;;
66546;SDS011;53400;50.364;14.874;2023-10-31T01:15:37;10.15;;;5.47;;
66546;SDS011;53400;50.364;14.874;2023-10-31T01:18:03;8.13;;;5.55;;
66546;SDS011;53400;50.364;14.874;2023-10-31T01:20:28;10.25;;;5.38;;
66546;SDS011;53400;50.364;14.874;2023-10-31T01:22:55;9.55;;;5.72;;
66546;SDS011;53400;50.364;14.874;2023-10-31T01:25:22;8.95;;;5.30;;
66546;SDS011;53400;50.364;14.874;2023-10-31T01:27:48;8.20;;;5.13;;
66546;SDS011;53400;50.364;14.874;2023-10-31T01:30:14;10.68;;;5.20;;
66546;SDS011;53400;50.364;14.874;2023-10-31T01:32:40;9.13;;;5.32;;
66546;SDS011;53400;50.364;14.874;2023-10-31T01:35:06;9.35;;;5.28;;
66546;SDS011;53400;50.364;14.874;2023-10-31T01:37:33;8.57;;;5.35;;
66546;SDS011;53400;50.364;14.874;2023-10-31T01:39:58;8.57;;;4.93;;
66546;SDS011;53400;50.364;14.874;2023-10-31T01:42:26;8.50;;;5.20;;
66546;SDS011;53400;50.364;14.874;2023-10-31T01:44:52;7.25;;;4.80;;
66546;SDS011;53400;50.364;14.874;2023-10-31T01:47:18;8.25;;;5.00;;
66546;SDS011;53400;50.364;14.874;2023-10-31T01:49:44;8.90;;;5.25;;
66546;SDS011;53400;50.364;14.874;2023-10-31T01:52:10;7.72;;;5.05;;
66546;SDS011;53400;50.364;14.874;2023-10-31T01:54:36;9.32;;;5.55;;
66546;SDS011;53400;50.364;14.874;2023-10-31T01:57:03;11.55;;;5.40;;
66546;SDS011;53400;50.364;14.874;2023-10-31T01:59:32;8.82;;;5.03;;
66546;SDS011;53400;50.364;14.874;2023-10-31T02:01:58;7.97;;;4.78;;
66546;SDS011;53400;50.364;14.874;2023-10-31T02:04:26;10.45;;;5.10;;
66546;SDS011;53400;50.364;14.874;2023-10-31T02:06:52;9.15;;;5.53;;
66546;SDS011;53400;50.364;14.874;2023-10-31T02:09:18;9.23;;;5.50;;
66546;SDS011;53400;50.364;14.874;2023-10-31T02:11:44;10.00;;;5.78;;
66546;SDS011;53400;50.364;14.874;2023-10-31T02:14:10;10.02;;;6.05;;
66546;SDS011;53400;50.364;14.874;2023-10-31T02:16:38;9.93;;;6.13;;
66546;SDS011;53400;50.364;14.874;2023-10-31T02:19:04;10.32;;;5.72;;
66546;SDS011;53400;50.364;14.874;2023-10-31T02:21:31;11.75;;;6.00;;
66546;SDS011;53400;50.364;14.874;2023-10-31T02:23:59;11.02;;;5.75;;
66546;SDS011;53400;50.364;14.874;2023-10-31T02:26:29;11.13;;;5.93;;
66546;SDS011;53400;50.364;14.874;2023-10-31T02:28:55;11.02;;;6.45;;
66546;SDS011;53400;50.364;14.874;2023-10-31T02:31:23;10.07;;;6.43;;
66546;SDS011;53400;50.364;14.874;2023-10-31T02:33:49;12.10;;;5.90;;
66546;SDS011;53400;50.364;14.874;2023-10-31T02:36:15;12.88;;;6.18;;
66546;SDS011;53400;50.364;14.874;2023-10-31T02:38:41;13.57;;;6.28;;
66546;SDS011;53400;50.364;14.874;2023-10-31T02:41:11;10.23;;;6.15;;
66546;SDS011;53400;50.364;14.874;2023-10-31T02:43:37;10.73;;;7.45;;
66546;SDS011;53400;50.364;14.874;2023-10-31T02:46:03;10.02;;;6.50;;
66546;SDS011;53400;50.364;14.874;2023-10-31T02:48:29;11.52;;;7.13;;
66546;SDS011;53400;50.364;14.874;2023-10-31T02:51:06;11.02;;;7.03;;
66546;SDS011;53400;50.364;14.874;2023-10-31T02:53:32;11.68;;;7.60;;
66546;SDS011;53400;50.364;14.874;2023-10-31T02:55:59;16.55;;;8.25;;
66546;SDS011;53400;50.364;14.874;2023-10-31T02:58:26;10.93;;;7.97;;
66546;SDS011;53400;50.364;14.874;2023-10-31T03:00:52;14.90;;;9.07;;
66546;SDS011;53400;50.364;14.874;2023-10-31T03:03:21;13.70;;;8.65;;
66546;SDS011;53400;50.364;14.874;2023-10-31T03:05:47;12.80;;;8.98;;
66546;SDS011;53400;50.364;14.874;2023-10-31T03:08:12;14.60;;;9.45;;
66546;SDS011;53400;50.364;14.874;2023-10-31T03:10:40;13.07;;;8.57;;
66546;SDS011;53400;50.364;14.874;2023-10-31T03:13:06;13.73;;;9.65;;
66546;SDS011;53400;50.364;14.874;2023-10-31T03:15:34;13.93;;;10.23;;
66546;SDS011;53400;50.364;14.874;2023-10-31T03:18:00;16.25;;;10.02;;
66546;SDS011;53400;50.364;14.874;2023-10-31T03:20:26;17.35;;;11.23;;
66546;SDS011;53400;50.364;14.874;2023-10-31T03:22:58;21.95;;;13.23;;
66546;SDS011;53400;50.364;14.874;2023-10-31T03:25:24;19.55;;;12.95;;
66546;SDS011;53400;50.364;14.874;2023-10-31T03:27:50;18.90;;;12.65;;
66546;SDS011;53400;50.364;14.874;2023-10-31T03:30:16;20.02;;;12.57;;
66546;SDS011;53400;50.364;14.874;2023-10-31T03:32:43;19.02;;;13.23;;
66546;SDS011;53400;50.364;14.874;2023-10-31T03:35:09;19.45;;;12.82;;
66546;SDS011;53400;50.364;14.874;2023-10-31T03:37:35;18.83;;;12.93;;
66546;SDS011;53400;50.364;14.874;2023-10-31T03:40:01;19.92;;;12.85;;
66546;SDS011;53400;50.364;14.874;2023-10-31T03:42:27;18.98;;;13.20;;
66546;SDS011;53400;50.364;14.874;2023-10-31T03:44:54;21.30;;;13.48;;
66546;SDS011;53400;50.364;14.874;2023-10-31T03:47:20;18.65;;;13.35;;
66546;SDS011;53400;50.364;14.874;2023-10-31T03:49:48;18.63;;;13.13;;
66546;SDS011;53400;50.364;14.874;2023-10-31T03:52:16;22.42;;;14.23;;
66546;SDS011;53400;50.364;14.874;2023-10-31T03:54:42;20.17;;;12.65;;
66546;SDS011;53400;50.364;14.874;2023-10-31T03:57:08;22.77;;;12.80;;
66546;SDS011;53400;50.364;14.874;2023-10-31T03:59:36;21.42;;;13.80;;
66546;SDS011;53400;50.364;14.874;2023-10-31T04:02:02;22.75;;;14.15;;
66546;SDS011;53400;50.364;14.874;2023-10-31T04:04:32;19.42;;;12.38;;
66546;SDS011;53400;50.364;14.874;2023-10-31T04:06:59;21.00;;;14.27;;
66546;SDS011;53400;50.364;14.874;2023-10-31T04:09:37;20.90;;;13.23;;
66546;SDS011;53400;50.364;14.874;2023-10-31T04:12:02;20.73;;;13.15;;
66546;SDS011;53400;50.364;14.874;2023-10-31T04:14:29;21.20;;;13.32;;
66546;SDS011;53400;50.364;14.874;2023-10-31T04:17:15;21.85;;;13.70;;
66546;SDS011;53400;50.364;14.874;2023-10-31T04:19:41;19.83;;;13.73;;
66546;SDS011;53400;50.364;14.874;2023-10-31T04:22:08;18.35;;;12.10;;
66546;SDS011;53400;50.364;14.874;2023-10-31T04:24:35;21.08;;;12.18;;
66546;SDS011;53400;50.364;14.874;2023-10-31T04:27:03;19.10;;;11.82;;
66546;SDS011;53400;50.364;14.874;2023-10-31T04:29:29;17.45;;;12.02;;
66546;SDS011;53400;50.364;14.874;2023-10-31T04:31:55;20.70;;;11.30;;
66546;SDS011;53400;50.364;14.874;2023-10-31T04:34:21;20.08;;;12.32;;
66546;SDS011;53400;50.364;14.874;2023-10-31T04:36:47;18.33;;;11.63;;
66546;SDS011;53400;50.364;14.874;2023-10-31T04:39:14;19.20;;;12.30;;
66546;SDS011;53400;50.364;14.874;2023-10-31T04:41:42;18.23;;;11.80;;
66546;SDS011;53400;50.364;14.874;2023-10-31T04:44:08;18.13;;;11.43;;
66546;SDS011;53400;50.364;14.874;2023-10-31T04:46:34;18.27;;;11.50;;
66546;SDS011;53400;50.364;14.874;2023-10-31T04:49:02;17.38;;;11.13;;
66546;SDS011;53400;50.364;14.874;2023-10-31T04:51:32;17.27;;;10.65;;
66546;SDS011;53400;50.364;14.874;2023-10-31T04:53:59;15.73;;;10.90;;
66546;SDS011;53400;50.364;14.874;2023-10-31T04:56:27;14.65;;;9.63;;
66546;SDS011;53400;50.364;14.874;2023-10-31T04:58:53;15.05;;;10.63;;
66546;SDS011;53400;50.364;14.874;2023-10-31T05:01:19;13.77;;;10.35;;
66546;SDS011;53400;50.364;14.874;2023-10-31T05:03:48;16.65;;;9.85;;
66546;SDS011;53400;50.364;14.874;2023-10-31T05:06:18;15.57;;;10.50;;
66546;SDS011;53400;50.364;14.874;2023-10-31T05:08:46;13.48;;;8.60;;
66546;SDS011;53400;50.364;14.874;2023-10-31T05:11:11;14.85;;;9.07;;
66546;SDS011;53400;50.364;14.874;2023-10-31T05:13:40;12.85;;;8.40;;
66546;SDS011;53400;50.364;14.874;2023-10-31T05:16:06;12.93;;;8.70;;
66546;SDS011;53400;50.364;14.874;2023-10-31T05:18:33;12.80;;;8.35;;
66546;SDS011;53400;50.364;14.874;2023-10-31T05:21:00;12.85;;;8.63;;
66546;SDS011;53400;50.364;14.874;2023-10-31T05:23:27;12.48;;;8.40;;
66546;SDS011;53400;50.364;14.874;2023-10-31T05:25:52;11.73;;;8.23;;
66546;SDS011;53400;50.364;14.874;2023-10-31T05:28:19;11.45;;;8.15;;
66546;SDS011;53400;50.364;14.874;2023-10-31T05:30:46;11.07;;;7.97;;
66546;SDS011;53400;50.364;14.874;2023-10-31T05:33:14;12.27;;;8.65;;
66546;SDS011;53400;50.364;14.874;2023-10-31T05:35:40;11.75;;;7.65;;
66546;SDS011;53400;50.364;14.874;2023-10-31T05:38:07;11.32;;;7.82;;
66546;SDS011;53400;50.364;14.874;2023-10-31T05:40:33;12.30;;;7.95;;
66546;SDS011;53400;50.364;14.874;2023-10-31T05:43:01;11.80;;;8.00;;
66546;SDS011;53400;50.364;14.874;2023-10-31T05:45:51;11.73;;;7.10;;
66546;SDS011;53400;50.364;14.874;2023-10-31T05:48:17;11.63;;;8.07;;
66546;SDS011;53400;50.364;14.874;2023-10-31T05:50:44;11.38;;;7.57;;
66546;SDS011;53400;50.364;14.874;2023-10-31T05:53:10;12.05;;;8.15;;
66546;SDS011;53400;50.364;14.874;2023-10-31T05:55:38;10.43;;;6.57;;
66546;SDS011;53400;50.364;14.874;2023-10-31T05:58:04;9.90;;;6.72;;
66546;SDS011;53400;50.364;14.874;2023-10-31T06:00:30;10.32;;;6.88;;
66546;SDS011;53400;50.364;14.874;2023-10-31T06:02:58;11.15;;;6.78;;
66546;SDS011;53400;50.364;14.874;2023-10-31T06:05:23;10.02;;;6.50;;
66546;SDS011;53400;50.364;14.874;2023-10-31T06:07:50;9.82;;;6.03;;
66546;SDS011;53400;50.364;14.874;2023-10-31T06:10:16;9.20;;;6.50;;
66546;SDS011;53400;50.364;14.874;2023-10-31T06:12:43;9.70;;;6.50;;
66546;SDS011;53400;50.364;14.874;2023-10-31T06:15:09;9.93;;;6.53;;
66546;SDS011;53400;50.364;14.874;2023-10-31T06:17:35;8.52;;;5.82;;
66546;SDS011;53400;50.364;14.874;2023-10-31T06:20:02;9.30;;;6.28;;
66546;SDS011;53400;50.364;14.874;2023-10-31T06:22:29;8.02;;;5.68;;
66546;SDS011;53400;50.364;14.874;2023-10-31T06:24:54;9.30;;;5.53;;
66546;SDS011;53400;50.364;14.874;2023-10-31T06:27:21;9.02;;;5.93;;
66546;SDS011;53400;50.364;14.874;2023-10-31T06:29:46;8.32;;;5.20;;
66546;SDS011;53400;50.364;14.874;2023-10-31T06:32:13;7.85;;;5.03;;
66546;SDS011;53400;50.364;14.874;2023-10-31T06:34:39;7.53;;;4.90;;
66546;SDS011;53400;50.364;14.874;2023-10-31T06:37:08;7.68;;;5.40;;
66546;SDS011;53400;50.364;14.874;2023-10-31T06:39:34;8.57;;;4.93;;
66546;SDS011;53400;50.364;14.874;2023-10-31T06:42:00;8.07;;;4.80;;
66546;SDS011;53400;50.364;14.874;2023-10-31T06:44:26;7.70;;;4.80;;
66546;SDS011;53400;50.364;14.874;2023-10-31T06:46:53;6.10;;;4.00;;
66546;SDS011;53400;50.364;14.874;2023-10-31T06:49:19;8.25;;;4.57;;
66546;SDS011;53400;50.364;14.874;2023-10-31T06:51:46;7.30;;;4.20;;
66546;SDS011;53400;50.364;14.874;2023-10-31T06:54:13;6.55;;;3.83;;
66546;SDS011;53400;50.364;14.874;2023-10-31T06:56:39;6.70;;;3.58;;
66546;SDS011;53400;50.364;14.874;2023-10-31T06:59:05;6.13;;;3.35;;
66546;SDS011;53400;50.364;14.874;2023-10-31T07:01:52;4.95;;;2.92;;
66546;SDS011;53400;50.364;14.874;2023-10-31T07:04:18;6.90;;;3.33;;
66546;SDS011;53400;50.364;14.874;2023-10-31T07:06:46;7.00;;;3.20;;
66546;SDS011;53400;50.364;14.874;2023-10-31T07:09:14;4.88;;;2.75;;
66546;SDS011;53400;50.364;14.874;2023-10-31T07:11:40;5.28;;;2.97;;
66546;SDS011;53400;50.364;14.874;2023-10-31T07:14:06;6.30;;;2.90;;
66546;SDS011;53400;50.364;14.874;2023-10-31T07:16:38;4.95;;;2.53;;
66546;SDS011;53400;50.364;14.874;2023-10-31T07:19:34;5.32;;;2.53;;
66546;SDS011;53400;50.364;14.874;2023-10-31T07:22:00;6.47;;;2.25;;
66546;SDS011;53400;50.364;14.874;2023-10-31T07:24:28;5.20;;;2.38;;
66546;SDS011;53400;50.364;14.874;2023-10-31T07:26:59;4.10;;;2.10;;
66546;SDS011;53400;50.364;14.874;2023-10-31T07:29:29;4.22;;;2.15;;
66546;SDS011;53400;50.364;14.874;2023-10-31T07:31:55;4.95;;;2.20;;
66546;SDS011;53400;50.364;14.874;2023-10-31T07:34:21;5.80;;;2.28;;
66546;SDS011;53400;50.364;14.874;2023-10-31T07:36:48;3.88;;;1.75;;
66546;SDS011;53400;50.364;14.874;2023-10-31T07:39:13;4.95;;;2.00;;
66546;SDS011;53400;50.364;14.874;2023-10-31T07:41:41;3.78;;;1.60;;
66546;SDS011;53400;50.364;14.874;2023-10-31T07:44:07;4.38;;;1.70;;
66546;SDS011;53400;50.364;14.874;2023-10-31T07:46:33;4.25;;;1.70;;
66546;SDS011;53400;50.364;14.874;2023-10-31T07:49:23;4.18;;;1.45;;
66546;SDS011;53400;50.364;14.874;2023-10-31T07:51:49;4.20;;;1.40;;
66546;SDS011;53400;50.364;14.874;2023-10-31T07:54:15;3.53;;;1.42;;
66546;SDS011;53400;50.364;14.874;2023-10-31T07:56:43;3.40;;;1.40;;
66546;SDS011;53400;50.364;14.874;2023-10-31T07:59:09;4.50;;;1.50;;
66546;SDS011;53400;50.364;14.874;2023-10-31T08:01:35;3.17;;;1.35;;
66546;SDS011;53400;50.364;14.874;2023-10-31T08:04:01;3.00;;;1.38;;
66546;SDS011;53400;50.364;14.874;2023-10-31T08:06:27;5.70;;;1.65;;
66546;SDS011;53400;50.364;14.874;2023-10-31T08:08:53;2.97;;;1.52;;
66546;SDS011;53400;50.364;14.874;2023-10-31T08:11:19;2.67;;;1.13;;
66546;SDS011;53400;50.364;14.874;2023-10-31T08:13:46;3.33;;;1.13;;
66546;SDS011;53400;50.364;14.874;2023-10-31T08:16:16;2.58;;;1.13;;
66546;SDS011;53400;50.364;14.874;2023-10-31T08:18:42;1.98;;;0.88;;
66546;SDS011;53400;50.364;14.874;2023-10-31T08:21:09;2.35;;;0.95;;
66546;SDS011;53400;50.364;14.874;2023-10-31T08:23:36;1.95;;;0.80;;
66546;SDS011;53400;50.364;14.874;2023-10-31T08:26:02;2.53;;;0.90;;
66546;SDS011;53400;50.364;14.874;2023-10-31T08:28:28;2.05;;;0.80;;
66546;SDS011;53400;50.364;14.874;2023-10-31T08:30:57;2.22;;;0.70;;
66546;SDS011;53400;50.364;14.874;2023-10-31T08:33:23;2.40;;;0.82;;
66546;SDS011;53400;50.364;14.874;2023-10-31T08:35:50;2.58;;;0.80;;
66546;SDS011;53400;50.364;14.874;2023-10-31T08:38:16;2.35;;;0.90;;
66546;SDS011;53400;50.364;14.874;2023-10-31T08:40:42;3.25;;;0.85;;
66546;SDS011;53400;50.364;14.874;2023-10-31T08:43:08;1.58;;;0.80;;
66546;SDS011;53400;50.364;14.874;2023-10-31T08:45:36;3.75;;;1.00;;
66546;SDS011;53400;50.364;14.874;2023-10-31T08:48:07;3.42;;;1.10;;
66546;SDS011;53400;50.364;14.874;2023-10-31T08:50:33;3.30;;;1.00;;
66546;SDS011;53400;50.364;14.874;2023-10-31T08:53:28;5.03;;;2.65;;
66546;SDS011;53400;50.364;14.874;2023-10-31T08:55:54;2.00;;;0.70;;
66546;SDS011;53400;50.364;14.874;2023-10-31T08:58:22;2.03;;;0.80;;
66546;SDS011;53400;50.364;14.874;2023-10-31T09:00:50;1.63;;;0.80;;
66546;SDS011;53400;50.364;14.874;2023-10-31T09:03:18;2.05;;;0.70;;
66546;SDS011;53400;50.364;14.874;2023-10-31T09:05:44;3.15;;;0.90;;
66546;SDS011;53400;50.364;14.874;2023-10-31T09:08:10;1.55;;;0.70;;
66546;SDS011;53400;50.364;14.874;2023-10-31T09:10:38;2.67;;;0.80;;
66546;SDS011;53400;50.364;14.874;2023-10-31T09:13:06;2.13;;;0.77;;
66546;SDS011;53400;50.364;14.874;2023-10-31T09:15:32;1.90;;;0.80;;
66546;SDS011;53400;50.364;14.874;2023-10-31T09:17:58;1.42;;;0.63;;
66546;SDS011;53400;50.364;14.874;2023-10-31T09:20:26;1.48;;;0.73;;
66546;SDS011;53400;50.364;14.874;2023-10-31T09:22:51;2.33;;;0.70;;
66546;SDS011;53400;50.364;14.874;2023-10-31T09:25:18;1.58;;;0.80;;
66546;SDS011;53400;50.364;14.874;2023-10-31T09:27:44;1.45;;;0.75;;
66546;SDS011;53400;50.364;14.874;2023-10-31T09:30:10;2.03;;;0.90;;
66546;SDS011;53400;50.364;14.874;2023-10-31T09:32:36;2.17;;;1.02;;
66546;SDS011;53400;50.364;14.874;2023-10-31T09:35:02;1.95;;;0.80;;
66546;SDS011;53400;50.364;14.874;2023-10-31T09:37:30;1.88;;;0.82;;
66546;SDS011;53400;50.364;14.874;2023-10-31T09:39:56;1.88;;;0.85;;
66546;SDS011;53400;50.364;14.874;2023-10-31T09:42:22;3.55;;;1.08;;
66546;SDS011;53400;50.364;14.874;2023-10-31T09:44:48;2.22;;;0.88;;
66546;SDS011;53400;50.364;14.874;2023-10-31T09:47:14;2.38;;;0.80;;
66546;SDS011;53400;50.364;14.874;2023-10-31T09:49:41;1.77;;;0.88;;
66546;SDS011;53400;50.364;14.874;2023-10-31T09:52:06;1.30;;;0.65;;
66546;SDS011;53400;50.364;14.874;2023-10-31T09:54:35;2.35;;;0.70;;
66546;SDS011;53400;50.364;14.874;2023-10-31T09:57:02;1.38;;;0.70;;
66546;SDS011;53400;50.364;14.874;2023-10-31T09:59:31;1.20;;;0.60;;
66546;SDS011;53400;50.364;14.874;2023-10-31T10:01:57;4.53;;;0.80;;
66546;SDS011;53400;50.364;14.874;2023-10-31T10:04:23;4.47;;;1.02;;
66546;SDS011;53400;50.364;14.874;2023-10-31T10:06:51;1.27;;;0.60;;
66546;SDS011;53400;50.364;14.874;2023-10-31T10:09:18;2.08;;;0.70;;
66546;SDS011;53400;50.364;14.874;2023-10-31T10:11:45;1.90;;;0.80;;
66546;SDS011;53400;50.364;14.874;2023-10-31T10:14:12;2.28;;;0.80;;
66546;SDS011;53400;50.364;14.874;2023-10-31T10:16:38;1.83;;;0.77;;
66546;SDS011;53400;50.364;14.874;2023-10-31T10:19:15;1.40;;;0.70;;
66546;SDS011;53400;50.364;14.874;2023-10-31T10:21:46;1.63;;;0.80;;
66546;SDS011;53400;50.364;14.874;2023-10-31T10:24:13;1.63;;;0.73;;
66546;SDS011;53400;50.364;14.874;2023-10-31T10:26:39;2.45;;;0.70;;
66546;SDS011;53400;50.364;14.874;2023-10-31T10:29:07;2.20;;;0.75;;
66546;SDS011;53400;50.364;14.874;2023-10-31T10:31:33;1.92;;;0.63;;
66546;SDS011;53400;50.364;14.874;2023-10-31T10:33:59;2.22;;;0.60;;
66546;SDS011;53400;50.364;14.874;2023-10-31T10:36:27;2.13;;;0.70;;
66546;SDS011;53400;50.364;14.874;2023-10-31T10:39:16;1.10;;;0.60;;
66546;SDS011;53400;50.364;14.874;2023-10-31T10:41:45;1.23;;;0.60;;
66546;SDS011;53400;50.364;14.874;2023-10-31T10:44:17;3.08;;;0.60;;
66546;SDS011;53400;50.364;14.874;2023-10-31T10:46:48;2.30;;;0.70;;
66546;SDS011;53400;50.364;14.874;2023-10-31T10:49:27;0.90;;;0.50;;
66546;SDS011;53400;50.364;14.874;2023-10-31T10:51:57;1.15;;;0.55;;
66546;SDS011;53400;50.364;14.874;2023-10-31T10:54:31;1.27;;;0.60;;
66546;SDS011;53400;50.364;14.874;2023-10-31T10:57:42;1.77;;;0.70;;
66546;SDS011;53400;50.364;14.874;2023-10-31T11:00:15;1.15;;;0.60;;
66546;SDS011;53400;50.364;14.874;2023-10-31T11:02:42;1.13;;;0.60;;
66546;SDS011;53400;50.364;14.874;2023-10-31T11:05:09;1.00;;;0.50;;
66546;SDS011;53400;50.364;14.874;2023-10-31T11:07:37;1.30;;;0.60;;
66546;SDS011;53400;50.364;14.874;2023-10-31T11:10:04;1.75;;;0.65;;
66546;SDS011;53400;50.364;14.874;2023-10-31T11:12:31;3.13;;;0.70;;
66546;SDS011;53400;50.364;14.874;2023-10-31T11:15:11;1.73;;;0.68;;
66546;SDS011;53400;50.364;14.874;2023-10-31T11:17:41;4.13;;;0.68;;
66546;SDS011;53400;50.364;14.874;2023-10-31T11:20:10;1.45;;;0.60;;
66546;SDS011;53400;50.364;14.874;2023-10-31T11:22:40;2.72;;;0.70;;
66546;SDS011;53400;50.364;14.874;2023-10-31T11:25:07;2.38;;;0.65;;
66546;SDS011;53400;50.364;14.874;2023-10-31T11:27:34;1.38;;;0.65;;
66546;SDS011;53400;50.364;14.874;2023-10-31T11:30:06;2.33;;;0.73;;
66546;SDS011;53400;50.364;14.874;2023-10-31T11:32:33;3.08;;;0.80;;
66546;SDS011;53400;50.364;14.874;2023-10-31T11:35:00;2.00;;;0.70;;
66546;SDS011;53400;50.364;14.874;2023-10-31T11:37:27;2.80;;;0.70;;
66546;SDS011;53400;50.364;14.874;2023-10-31T11:40:15;2.00;;;0.70;;
66546;SDS011;53400;50.364;14.874;2023-10-31T11:42:49;1.45;;;0.70;;
66546;SDS011;53400;50.364;14.874;2023-10-31T11:45:25;1.98;;;0.80;;
66546;SDS011;53400;50.364;14.874;2023-10-31T11:47:53;2.55;;;0.90;;
66546;SDS011;53400;50.364;14.874;2023-10-31T11:50:21;37.03;;;11.18;;
66546;SDS011;53400;50.364;14.874;2023-10-31T11:52:57;1.75;;;0.80;;
66546;SDS011;53400;50.364;14.874;2023-10-31T11:55:28;2.38;;;0.90;;
66546;SDS011;53400;50.364;14.874;2023-10-31T11:57:54;2.63;;;0.93;;
66546;SDS011;53400;50.364;14.874;2023-10-31T12:00:20;2.80;;;0.80;;
66546;SDS011;53400;50.364;14.874;2023-10-31T12:02:56;4.05;;;1.20;;
66546;SDS011;53400;50.364;14.874;2023-10-31T12:05:24;2.78;;;1.00;;
66546;SDS011;53400;50.364;14.874;2023-10-31T12:07:50;2.50;;;0.95;;
66546;SDS011;53400;50.364;14.874;2023-10-31T12:10:21;4.25;;;1.13;;
66546;SDS011;53400;50.364;14.874;2023-10-31T12:12:52;3.05;;;1.20;;
66546;SDS011;53400;50.364;14.874;2023-10-31T12:15:18;2.45;;;1.10;;
66546;SDS011;53400;50.364;14.874;2023-10-31T12:17:44;4.00;;;1.10;;
66546;SDS011;53400;50.364;14.874;2023-10-31T12:20:11;3.03;;;1.20;;
66546;SDS011;53400;50.364;14.874;2023-10-31T12:22:38;2.88;;;1.10;;
66546;SDS011;53400;50.364;14.874;2023-10-31T12:25:06;3.25;;;1.00;;
66546;SDS011;53400;50.364;14.874;2023-10-31T12:27:43;2.40;;;1.10;;
66546;SDS011;53400;50.364;14.874;2023-10-31T12:30:10;2.80;;;1.00;;
66546;SDS011;53400;50.364;14.874;2023-10-31T12:32:37;3.92;;;1.23;;
66546;SDS011;53400;50.364;14.874;2023-10-31T12:35:04;2.67;;;1.00;;
66546;SDS011;53400;50.364;14.874;2023-10-31T12:37:30;2.75;;;1.00;;
66546;SDS011;53400;50.364;14.874;2023-10-31T12:39:58;2.10;;;1.00;;
66546;SDS011;53400;50.364;14.874;2023-10-31T12:42:29;2.65;;;1.38;;
66546;SDS011;53400;50.364;14.874;2023-10-31T12:44:57;1.75;;;1.00;;
66546;SDS011;53400;50.364;14.874;2023-10-31T12:47:24;3.78;;;1.17;;
66546;SDS011;53400;50.364;14.874;2023-10-31T12:50:04;2.67;;;1.00;;
66546;SDS011;53400;50.364;14.874;2023-10-31T12:52:44;1.98;;;1.10;;
66546;SDS011;53400;50.364;14.874;2023-10-31T12:55:13;3.47;;;1.67;;
66546;SDS011;53400;50.364;14.874;2023-10-31T12:57:40;1.80;;;1.08;;
66546;SDS011;53400;50.364;14.874;2023-10-31T13:00:06;3.30;;;1.10;;
66546;SDS011;53400;50.364;14.874;2023-10-31T13:02:36;2.90;;;1.20;;
66546;SDS011;53400;50.364;14.874;2023-10-31T13:05:07;3.35;;;1.20;;
66546;SDS011;53400;50.364;14.874;2023-10-31T13:07:34;3.50;;;1.25;;
66546;SDS011;53400;50.364;14.874;2023-10-31T13:10:00;3.45;;;1.13;;
66546;SDS011;53400;50.364;14.874;2023-10-31T13:12:29;3.13;;;1.20;;
66546;SDS011;53400;50.364;14.874;2023-10-31T13:14:57;3.35;;;1.00;;
66546;SDS011;53400;50.364;14.874;2023-10-31T13:17:22;2.75;;;1.10;;
66546;SDS011;53400;50.364;14.874;2023-10-31T13:19:49;2.53;;;1.20;;
66546;SDS011;53400;50.364;14.874;2023-10-31T13:22:14;2.75;;;1.10;;
66546;SDS011;53400;50.364;14.874;2023-10-31T13:24:40;2.92;;;1.17;;
66546;SDS011;53400;50.364;14.874;2023-10-31T13:27:07;3.92;;;1.13;;
66546;SDS011;53400;50.364;14.874;2023-10-31T13:29:35;2.92;;;1.27;;
66546;SDS011;53400;50.364;14.874;2023-10-31T13:32:01;2.20;;;1.00;;
66546;SDS011;53400;50.364;14.874;2023-10-31T13:34:28;2.80;;;1.20;;
66546;SDS011;53400;50.364;14.874;2023-10-31T13:36:59;2.10;;;1.10;;
66546;SDS011;53400;50.364;14.874;2023-10-31T13:39:26;2.80;;;1.13;;
66546;SDS011;53400;50.364;14.874;2023-10-31T13:41:52;2.15;;;0.93;;
66546;SDS011;53400;50.364;14.874;2023-10-31T13:44:18;3.78;;;0.98;;
66546;SDS011;53400;50.364;14.874;2023-10-31T13:46:47;3.40;;;1.17;;
66546;SDS011;53400;50.364;14.874;2023-10-31T13:49:17;3.25;;;1.30;;
66546;SDS011;53400;50.364;14.874;2023-10-31T13:51:43;3.13;;;1.00;;
66546;SDS011;53400;50.364;14.874;2023-10-31T13:54:09;2.65;;;1.20;;
66546;SDS011;53400;50.364;14.874;2023-10-31T13:56:35;7.40;;;1.73;;
66546;SDS011;53400;50.364;14.874;2023-10-31T13:59:01;3.40;;;1.20;;
66546;SDS011;53400;50.364;14.874;2023-10-31T14:01:27;2.30;;;1.10;;
66546;SDS011;53400;50.364;14.874;2023-10-31T14:03:55;3.53;;;1.27;;
66546;SDS011;53400;50.364;14.874;2023-10-31T14:06:27;2.08;;;1.13;;
66546;SDS011;53400;50.364;14.874;2023-10-31T14:08:58;2.67;;;1.30;;
66546;SDS011;53400;50.364;14.874;2023-10-31T14:11:25;3.55;;;1.30;;
66546;SDS011;53400;50.364;14.874;2023-10-31T14:17:50;4.07;;;1.60;;
66546;SDS011;53400;50.364;14.874;2023-10-31T14:21:20;4.20;;;1.27;;
66546;SDS011;53400;50.364;14.874;2023-10-31T14:24:09;3.58;;;1.40;;
66546;SDS011;53400;50.364;14.874;2023-10-31T14:26:35;2.72;;;1.30;;
66546;SDS011;53400;50.364;14.874;2023-10-31T14:29:04;3.90;;;1.60;;
66546;SDS011;53400;50.364;14.874;2023-10-31T14:31:30;4.22;;;1.30;;
66546;SDS011;53400;50.364;14.874;2023-10-31T14:33:59;4.35;;;1.55;;
66546;SDS011;53400;50.364;14.874;2023-10-31T14:36:26;3.75;;;1.60;;
66546;SDS011;53400;50.364;14.874;2023-10-31T14:38:57;3.38;;;1.42;;